createdAt,value
2017-08-31T00:01:58.131Z,99372.78
2017-08-31T00:04:59.484Z,99359.10
2017-08-31T00:08:01.057Z,99369.14
2017-08-31T00:11:02.397Z,99369.14
2017-08-31T00:14:03.745Z,99372.62
2017-08-31T00:17:05.065Z,99378.09
2017-08-31T00:20:06.425Z,99377.15
2017-08-31T00:23:07.729Z,99379.62
2017-08-31T00:26:09.076Z,99379.69
2017-08-31T00:29:10.447Z,99389.16
2017-08-31T00:32:12.618Z,99393.48
2017-08-31T00:35:14.087Z,99397.34
2017-08-31T00:38:15.469Z,99391.74
2017-08-31T00:41:16.853Z,99391.77
2017-08-31T00:44:18.226Z,99395.30
2017-08-31T00:47:19.697Z,99400.69
2017-08-31T00:50:21.057Z,99406.11
2017-08-31T00:53:22.461Z,99399.34
2017-08-31T00:56:23.899Z,99396.89
2017-08-31T00:59:25.281Z,99402.58
2017-08-31T01:02:26.658Z,99417.54
2017-08-31T01:05:28.062Z,99423.91
2017-08-31T01:08:29.441Z,99428.17
2017-08-31T01:11:30.854Z,99417.31
2017-08-31T01:14:32.176Z,99428.89
2017-08-31T01:17:33.707Z,99430.47
2017-08-31T01:20:35.072Z,99435.72
2017-08-31T01:23:36.459Z,99429.47
2017-08-31T01:26:37.800Z,99420.09
2017-08-31T01:29:39.214Z,99427.72
2017-08-31T01:32:40.573Z,99441.59
2017-08-31T01:35:41.962Z,99440.87
2017-08-31T01:38:43.687Z,99440.91
2017-08-31T01:41:45.061Z,99440.95
2017-08-31T01:44:46.481Z,99444.48
2017-08-31T01:47:47.845Z,99445.91
2017-08-31T01:50:49.215Z,99449.85
2017-08-31T01:53:50.557Z,99453.02
2017-08-31T01:56:51.955Z,99451.13
2017-08-31T01:59:53.283Z,99451.02
2017-08-31T02:02:54.661Z,99454.25
2017-08-31T02:05:56.034Z,99451.63
2017-08-31T02:08:57.357Z,99452.14
2017-08-31T02:11:58.698Z,99456.81
2017-08-31T02:15:00.013Z,99448.67
2017-08-31T02:18:01.368Z,99444.31
2017-08-31T02:21:02.698Z,99450.91
2017-08-31T02:24:04.074Z,99453.93
2017-08-31T02:27:05.823Z,99455.87
2017-08-31T02:30:07.173Z,99450.86
2017-08-31T02:33:08.573Z,99445.78
2017-08-31T02:36:09.958Z,99448.36
2017-08-31T02:39:11.338Z,99458.72
2017-08-31T02:42:12.676Z,99456.14
2017-08-31T02:45:14.033Z,99466.06
2017-08-31T02:48:15.382Z,99465.26
2017-08-31T02:51:16.746Z,99465.46
2017-08-31T02:54:18.083Z,99465.14
2017-08-31T02:57:19.439Z,99472.37
2017-08-31T03:00:20.805Z,99463.48
2017-08-31T03:03:22.150Z,99460.06
2017-08-31T03:06:23.509Z,99459.64
2017-08-31T03:09:24.798Z,99458.72
2017-08-31T03:12:26.176Z,99466.00
2017-08-31T03:18:28.757Z,99487.12
2017-08-31T03:21:30.315Z,99479.67
2017-08-31T03:24:31.638Z,99473.59
2017-08-31T03:27:32.994Z,99488.88
2017-08-31T03:30:34.341Z,99501.97
2017-08-31T03:33:35.667Z,99495.12
2017-08-31T03:36:36.961Z,99488.34
2017-08-31T03:39:38.306Z,99493.39
2017-08-31T03:42:39.637Z,99497.86
2017-08-31T03:45:40.982Z,99498.05
2017-08-31T03:48:42.335Z,99496.75
2017-08-31T03:51:43.642Z,99483.84
2017-08-31T03:54:45.411Z,99492.52
2017-08-31T03:57:47.192Z,99490.40
2017-08-31T04:00:48.551Z,99501.34
2017-08-31T04:03:50.605Z,99506.75
2017-08-31T04:06:51.992Z,99508.14
2017-08-31T04:09:53.441Z,99510.72
2017-08-31T04:12:54.759Z,99503.02
2017-08-31T04:15:56.102Z,99507.59
2017-08-31T04:18:57.423Z,99527.52
2017-08-31T04:21:58.777Z,99523.96
2017-08-31T04:25:00.113Z,99549.13
2017-08-31T04:28:02.192Z,99538.76
2017-08-31T04:31:03.558Z,99528.23
2017-08-31T04:34:04.886Z,99537.80
2017-08-31T04:37:06.209Z,99555.48
2017-08-31T04:40:07.534Z,99576.91
2017-08-31T04:43:08.902Z,99577.48
2017-08-31T04:46:10.226Z,99578.16
2017-08-31T04:49:11.582Z,99585.56
2017-08-31T04:52:12.896Z,99600.01
2017-08-31T04:55:14.261Z,99597.17
2017-08-31T04:58:15.890Z,99609.23
2017-08-31T05:01:17.258Z,99623.45
2017-08-31T05:04:18.648Z,99626.34
2017-08-31T05:07:20.055Z,99617.92
2017-08-31T05:10:21.413Z,99621.34
2017-08-31T05:13:22.733Z,99625.27
2017-08-31T05:16:24.088Z,99623.92
2017-08-31T05:19:25.563Z,99631.31
2017-08-31T05:22:26.971Z,99631.45
2017-08-31T05:25:28.374Z,99638.93
2017-08-31T05:28:29.717Z,99658.11
2017-08-31T05:31:31.092Z,99659.27
2017-08-31T05:34:39.330Z,99674.08
2017-08-31T05:37:40.698Z,99677.75
2017-08-31T05:40:42.462Z,99681.97
2017-08-31T05:43:43.829Z,99693.34
2017-08-31T05:46:45.220Z,99691.78
2017-08-31T05:49:46.560Z,99696.15
2017-08-31T05:52:47.917Z,99710.77
2017-08-31T05:55:49.279Z,99715.50
2017-08-31T05:58:50.658Z,99723.52
2017-08-31T06:01:52.049Z,99716.50
2017-08-31T06:04:53.397Z,99719.75
2017-08-31T06:07:54.774Z,99732.31
2017-08-31T06:10:56.131Z,99732.83
2017-08-31T06:13:57.491Z,99738.29
2017-08-31T06:16:58.822Z,99752.57
2017-08-31T06:20:00.163Z,99751.44
2017-08-31T06:23:01.884Z,99760.84
2017-08-31T06:26:03.191Z,99766.60
2017-08-31T06:29:04.538Z,99778.25
2017-08-31T06:32:05.852Z,99778.44
2017-08-31T06:35:07.239Z,99773.15
2017-08-31T06:38:08.581Z,99777.73
2017-08-31T06:41:09.966Z,99782.59
2017-08-31T06:44:11.333Z,99787.92
2017-08-31T06:47:12.653Z,99795.02
2017-08-31T06:50:14.023Z,99798.95
2017-08-31T06:53:15.315Z,99803.69
2017-08-31T06:56:16.668Z,99816.84
2017-08-31T06:59:17.999Z,99820.89
2017-08-31T07:02:19.381Z,99835.81
2017-08-31T07:05:21.190Z,99833.27
2017-08-31T07:08:22.489Z,99845.52
2017-08-31T07:11:23.802Z,99856.66
2017-08-31T07:14:25.118Z,99860.69
2017-08-31T07:17:26.467Z,99875.21
2017-08-31T07:20:27.750Z,99867.19
2017-08-31T07:23:29.097Z,99881.11
2017-08-31T07:26:30.425Z,99889.55
2017-08-31T07:29:31.793Z,99887.09
2017-08-31T07:32:33.166Z,99906.88
2017-08-31T07:35:34.469Z,99905.14
2017-08-31T07:38:35.832Z,99887.59
2017-08-31T07:41:37.166Z,99911.38
2017-08-31T07:44:38.514Z,99917.95
2017-08-31T07:47:39.829Z,99918.58
2017-08-31T07:50:41.200Z,99934.08
2017-08-31T07:53:42.532Z,99942.86
2017-08-31T07:56:43.868Z,99949.66
2017-08-31T07:59:45.171Z,99952.25
2017-08-31T08:02:53.512Z,99964.77
2017-08-31T08:05:54.883Z,99962.95
2017-08-31T08:08:56.226Z,99975.52
2017-08-31T08:11:57.535Z,99982.61
2017-08-31T08:14:58.883Z,99984.42
2017-08-31T08:18:00.206Z,99994.42
2017-08-31T08:21:01.534Z,99983.66
2017-08-31T08:24:02.886Z,99988.58
2017-08-31T08:27:04.187Z,100003.24
2017-08-31T08:30:05.545Z,100005.11
2017-08-31T08:33:06.858Z,100011.03
2017-08-31T08:36:08.204Z,100020.00
2017-08-31T08:39:09.667Z,100021.81
2017-08-31T08:42:10.970Z,100019.34
2017-08-31T08:45:12.333Z,100029.36
2017-08-31T08:48:13.649Z,100038.65
2017-08-31T08:51:15.024Z,100051.73
2017-08-31T08:54:16.344Z,100049.66
2017-08-31T08:57:24.633Z,100051.80
2017-08-31T09:00:26.122Z,100055.38
2017-08-31T09:03:27.446Z,100075.42
2017-08-31T09:06:28.842Z,100069.38
2017-08-31T09:09:30.151Z,100060.95
2017-08-31T09:12:31.538Z,100073.41
2017-08-31T09:15:32.850Z,100062.86
2017-08-31T09:18:34.210Z,100084.11
2017-08-31T09:21:35.697Z,100077.94
2017-08-31T09:24:37.015Z,100077.52
2017-08-31T09:27:38.333Z,100076.59
2017-08-31T09:30:39.677Z,100086.55
2017-08-31T09:33:41.059Z,100094.08
2017-08-31T09:36:42.369Z,100083.78
2017-08-31T09:39:43.725Z,100104.93
2017-08-31T09:42:45.174Z,100092.75
2017-08-31T09:45:46.482Z,100097.02
2017-08-31T09:48:47.840Z,100108.55
2017-08-31T09:51:49.179Z,100122.79
2017-08-31T09:54:50.561Z,100123.04
2017-08-31T09:57:51.860Z,100125.93
2017-08-31T10:00:53.225Z,100132.00
2017-08-31T10:03:54.677Z,100131.27
2017-08-31T10:06:56.015Z,100140.22
2017-08-31T10:09:57.352Z,100133.33
2017-08-31T10:12:58.674Z,100137.97
2017-08-31T10:16:00.073Z,100145.70
2017-08-31T10:19:01.367Z,100151.30
2017-08-31T10:22:02.695Z,100153.63
2017-08-31T10:25:04.201Z,100160.56
2017-08-31T10:28:05.573Z,100159.74
2017-08-31T10:31:06.941Z,100171.66
2017-08-31T10:34:08.289Z,100172.47
2017-08-31T10:37:09.645Z,100179.67
2017-08-31T10:40:10.998Z,100186.58
2017-08-31T10:43:12.397Z,100187.95
2017-08-31T10:46:13.741Z,100187.22
2017-08-31T10:49:15.086Z,100196.42
2017-08-31T10:52:16.461Z,100201.80
2017-08-31T10:55:17.810Z,100205.03
2017-08-31T10:58:19.194Z,100209.02
2017-08-31T11:01:20.550Z,100219.84
2017-08-31T11:04:21.900Z,100223.22
2017-08-31T11:07:23.664Z,100228.27
2017-08-31T11:10:25.010Z,100236.88
2017-08-31T11:13:26.432Z,100226.69
2017-08-31T11:16:27.801Z,100232.74
2017-08-31T11:19:29.163Z,100229.75
2017-08-31T11:22:30.487Z,100232.31
2017-08-31T11:25:31.873Z,100234.13
2017-08-31T11:28:33.343Z,100238.92
2017-08-31T11:31:34.637Z,100256.49
2017-08-31T11:34:36.013Z,100263.05
2017-08-31T11:37:37.254Z,100261.45
2017-08-31T11:40:38.578Z,100275.00
2017-08-31T11:43:39.880Z,100274.88
2017-08-31T11:46:41.207Z,100276.12
2017-08-31T11:49:42.522Z,100288.85
2017-08-31T11:52:43.854Z,100287.70
2017-08-31T11:55:45.185Z,100298.80
2017-08-31T11:58:46.473Z,100306.33
2017-08-31T12:01:47.829Z,100306.21
2017-08-31T12:04:49.297Z,100311.81
2017-08-31T12:07:50.638Z,100319.47
2017-08-31T12:10:52.025Z,100321.19
2017-08-31T12:13:53.359Z,100325.92
2017-08-31T12:16:54.715Z,100325.67
2017-08-31T12:19:56.035Z,100327.88
2017-08-31T12:22:57.386Z,100342.15
2017-08-31T12:25:58.725Z,100338.47
2017-08-31T12:29:00.080Z,100346.55
2017-08-31T12:32:01.362Z,100341.15
2017-08-31T12:35:02.721Z,100341.16
2017-08-31T12:38:04.267Z,100349.25
2017-08-31T12:41:05.581Z,100351.45
2017-08-31T12:44:06.914Z,100343.72
2017-08-31T12:47:08.216Z,100348.62
2017-08-31T12:50:09.544Z,100346.57
2017-08-31T12:53:10.860Z,100345.16
2017-08-31T12:56:12.219Z,100345.19
2017-08-31T12:59:13.519Z,100341.37
2017-08-31T13:02:14.855Z,100347.27
2017-08-31T13:05:16.171Z,100344.81
2017-08-31T13:08:17.545Z,100343.03
2017-08-31T13:11:18.869Z,100348.26
2017-08-31T13:14:20.173Z,100346.23
2017-08-31T13:17:21.514Z,100349.20
2017-08-31T13:20:22.820Z,100350.80
2017-08-31T13:23:24.181Z,100352.06
2017-08-31T13:26:25.507Z,100356.42
2017-08-31T13:29:27.606Z,100351.39
2017-08-31T13:32:29.278Z,100352.95
2017-08-31T13:35:31.375Z,100351.34
2017-08-31T13:38:32.709Z,100358.38
2017-08-31T13:41:34.041Z,100368.92
2017-08-31T13:44:35.393Z,100365.69
2017-08-31T13:47:36.726Z,100361.52
2017-08-31T13:50:38.055Z,100373.43
2017-08-31T13:53:39.655Z,100382.27
2017-08-31T13:56:40.985Z,100386.30
2017-08-31T13:59:42.341Z,100367.56
2017-08-31T14:02:43.685Z,100377.78
2017-08-31T14:05:45.018Z,100374.33
2017-08-31T14:08:46.362Z,100368.80
2017-08-31T14:11:47.720Z,100368.11
2017-08-31T14:14:49.052Z,100375.96
2017-08-31T14:17:50.401Z,100369.89
2017-08-31T14:20:51.770Z,100372.38
2017-08-31T14:23:53.077Z,100374.12
2017-08-31T14:26:54.683Z,100374.08
2017-08-31T14:29:56.013Z,100372.84
2017-08-31T14:32:57.381Z,100375.48
2017-08-31T14:35:58.979Z,100375.23
2017-08-31T14:39:00.286Z,100381.41
2017-08-31T14:42:01.631Z,100380.91
2017-08-31T14:45:03.014Z,100391.12
2017-08-31T14:48:04.359Z,100392.44
2017-08-31T14:51:05.649Z,100392.38
2017-08-31T14:54:07.014Z,100379.30
2017-08-31T14:57:08.353Z,100387.09
2017-08-31T15:00:09.780Z,100395.32
2017-08-31T15:03:12.670Z,100389.11
2017-08-31T15:06:13.978Z,100404.41
2017-08-31T15:09:15.345Z,100407.58
2017-08-31T15:12:16.646Z,100405.84
2017-08-31T15:15:18.030Z,100407.70
2017-08-31T15:18:19.367Z,100408.81
2017-08-31T15:21:20.696Z,100406.75
2017-08-31T15:24:22.034Z,100413.84
2017-08-31T15:27:23.393Z,100416.63
2017-08-31T15:30:24.770Z,100419.02
2017-08-31T15:33:26.317Z,100412.42
2017-08-31T15:36:27.699Z,100422.28
2017-08-31T15:39:29.191Z,100423.30
2017-08-31T15:42:30.593Z,100427.91
2017-08-31T15:45:32.177Z,100419.51
2017-08-31T15:48:33.885Z,100418.92
2017-08-31T15:51:36.214Z,100414.01
2017-08-31T15:54:37.788Z,100422.28
2017-08-31T15:57:39.929Z,100419.69
2017-08-31T16:00:41.241Z,100437.11
2017-08-31T16:03:42.683Z,100439.12
2017-08-31T16:06:44.020Z,100434.39
2017-08-31T16:09:45.810Z,100438.38
2017-08-31T16:12:47.143Z,100442.43
2017-08-31T16:15:48.486Z,100444.36
2017-08-31T16:18:49.895Z,100444.78
2017-08-31T16:21:51.234Z,100434.26
2017-08-31T16:24:52.602Z,100436.02
2017-08-31T16:27:53.947Z,100438.72
2017-08-31T16:30:55.297Z,100437.63
2017-08-31T16:33:56.618Z,100443.95
2017-08-31T16:36:59.851Z,100449.27
2017-08-31T16:40:01.183Z,100448.83
2017-08-31T16:43:02.631Z,100437.92
2017-08-31T16:46:04.195Z,100447.71
2017-08-31T16:49:05.516Z,100446.78
2017-08-31T16:52:07.047Z,100449.38
2017-08-31T16:55:08.357Z,100451.16
2017-08-31T16:58:09.729Z,100454.56
2017-08-31T17:01:18.047Z,100467.63
2017-08-31T17:04:19.410Z,100467.09
2017-08-31T17:07:20.725Z,100470.86
2017-08-31T17:10:22.477Z,100470.58
2017-08-31T17:13:23.823Z,100475.69
2017-08-31T17:16:25.150Z,100481.22
2017-08-31T17:19:26.487Z,100478.38
2017-08-31T17:22:27.839Z,100481.08
2017-08-31T17:25:29.173Z,100475.30
2017-08-31T17:28:30.480Z,100469.84
2017-08-31T17:31:31.838Z,100477.49
2017-08-31T17:34:33.185Z,100487.42
2017-08-31T17:37:34.549Z,100488.37
2017-08-31T17:40:36.326Z,100494.41
2017-08-31T17:43:37.728Z,100485.72
2017-08-31T17:46:39.214Z,100485.12
2017-08-31T17:49:40.525Z,100496.64
2017-08-31T17:52:41.866Z,100496.33
2017-08-31T17:55:43.274Z,100500.23
2017-08-31T17:58:44.685Z,100504.43
2017-08-31T18:01:46.018Z,100515.45
2017-08-31T18:04:47.370Z,100515.61
2017-08-31T18:07:48.744Z,100517.06
2017-08-31T18:10:50.152Z,100525.59
2017-08-31T18:13:51.484Z,100515.74
2017-08-31T18:16:52.769Z,100527.55
2017-08-31T18:19:54.077Z,100533.03
2017-08-31T18:22:55.526Z,100545.47
2017-08-31T18:25:57.593Z,100540.12
2017-08-31T18:28:58.961Z,100547.98
2017-08-31T18:32:00.277Z,100551.76
2017-08-31T18:35:01.799Z,100546.52
2017-08-31T18:38:04.476Z,100557.27
2017-08-31T18:41:06.388Z,100560.61
2017-08-31T18:44:07.844Z,100557.36
2017-08-31T18:47:09.566Z,100568.30
2017-08-31T18:50:11.388Z,100575.30
2017-08-31T18:53:13.217Z,100583.47
2017-08-31T18:56:14.600Z,100577.73
2017-08-31T18:59:15.901Z,100574.39
2017-08-31T19:02:18.747Z,100577.19
2017-08-31T19:05:21.021Z,100581.29
2017-08-31T19:08:24.644Z,100585.66
2017-08-31T19:11:26.419Z,100586.50
2017-08-31T19:14:29.465Z,100593.42
2017-08-31T19:17:30.766Z,100597.21
2017-08-31T19:20:33.386Z,100591.87
2017-08-31T19:23:36.673Z,100597.28
2017-08-31T19:26:37.958Z,100594.66
2017-08-31T19:29:39.352Z,100595.72
2017-08-31T19:32:41.177Z,100589.19
2017-08-31T19:35:43.474Z,100592.48
2017-08-31T19:38:45.561Z,100591.14
2017-08-31T19:41:48.030Z,100584.12
2017-08-31T19:44:49.721Z,100577.23
2017-08-31T19:47:51.861Z,100578.41
2017-08-31T19:50:53.185Z,100581.59
2017-08-31T19:53:54.994Z,100595.08
2017-08-31T19:56:56.393Z,100597.08
2017-08-31T19:59:57.693Z,100597.78
2017-08-31T20:03:00.093Z,100600.00
2017-08-31T20:06:01.449Z,100598.39
2017-08-31T20:09:03.017Z,100598.46
2017-08-31T20:12:05.630Z,100603.20
2017-08-31T20:15:06.962Z,100604.03
2017-08-31T20:18:08.289Z,100602.28
2017-08-31T20:21:09.601Z,100597.66
2017-08-31T20:24:11.019Z,100597.41
2017-08-31T20:27:13.293Z,100596.08
2017-08-31T20:30:14.640Z,100600.78
2017-08-31T20:33:16.104Z,100599.13
2017-08-31T20:36:17.437Z,100604.09
2017-08-31T20:39:18.793Z,100603.17
2017-08-31T20:42:20.120Z,100600.25
2017-08-31T20:45:21.488Z,100609.35
2017-08-31T20:48:22.832Z,100610.59
2017-08-31T20:51:31.140Z,100612.91
2017-08-31T20:54:32.477Z,100616.16
2017-08-31T20:57:33.757Z,100607.97
2017-08-31T21:00:35.525Z,100614.05
2017-08-31T21:03:36.976Z,100611.80
2017-08-31T21:06:38.306Z,100610.50
2017-08-31T21:09:39.649Z,100617.42
2017-08-31T21:12:40.950Z,100622.20
2017-08-31T21:15:42.320Z,100624.11
2017-08-31T21:18:50.496Z,100619.78
2017-08-31T21:21:51.795Z,100620.86
2017-08-31T21:24:53.142Z,100628.62
2017-08-31T21:27:54.447Z,100619.05
2017-08-31T21:30:55.773Z,100619.21
2017-08-31T21:33:57.116Z,100625.92
2017-08-31T21:36:58.473Z,100624.32
2017-08-31T21:40:00.137Z,100634.78
2017-08-31T21:43:01.457Z,100626.27
2017-08-31T21:46:02.828Z,100625.46
2017-08-31T21:49:04.137Z,100623.17
2017-08-31T21:52:05.481Z,100628.66
2017-08-31T21:55:06.790Z,100630.28
2017-08-31T21:58:08.161Z,100627.25
2017-08-31T22:01:09.477Z,100625.70
2017-08-31T22:04:10.825Z,100623.47
2017-08-31T22:07:12.163Z,100625.34
2017-08-31T22:10:13.505Z,100618.89
2017-08-31T22:13:14.805Z,100616.22
2017-08-31T22:16:16.122Z,100628.30
2017-08-31T22:19:17.425Z,100632.06
2017-08-31T22:22:18.784Z,100631.24
2017-08-31T22:25:20.113Z,100642.04
2017-08-31T22:28:21.418Z,100644.64
2017-08-31T22:31:22.743Z,100649.73
2017-08-31T22:34:24.081Z,100644.28
2017-08-31T22:37:25.433Z,100646.70
2017-08-31T22:40:26.794Z,100641.30
2017-08-31T22:43:28.176Z,100628.87
2017-08-31T22:46:29.469Z,100625.15
2017-08-31T22:49:30.828Z,100627.64
2017-08-31T22:52:32.161Z,100628.77
2017-08-31T22:55:34.865Z,100634.98
2017-08-31T22:58:42.253Z,100630.05
2017-08-31T23:01:43.565Z,100635.92
2017-08-31T23:04:44.900Z,100642.58
2017-08-31T23:07:46.182Z,100649.59
2017-08-31T23:10:47.573Z,100657.58
2017-08-31T23:13:55.890Z,100654.75
2017-08-31T23:16:57.236Z,100655.42
2017-08-31T23:19:58.680Z,100648.09
2017-08-31T23:23:00.025Z,100652.27
2017-08-31T23:26:01.414Z,100654.59
2017-08-31T23:29:02.701Z,100661.17
2017-08-31T23:32:04.052Z,100654.20
2017-08-31T23:35:05.370Z,100656.03
2017-08-31T23:38:06.713Z,100657.97
2017-08-31T23:41:08.053Z,100653.72
2017-08-31T23:44:09.408Z,100647.52
2017-08-31T23:47:10.769Z,100658.38
2017-08-31T23:50:12.041Z,100639.34
2017-08-31T23:53:13.370Z,100640.44
2017-08-31T23:56:14.708Z,100629.27
2017-08-31T23:59:16.042Z,100638.38
